createdAt,value
2018-07-13T00:04:13.509Z,47.8
2018-07-13T00:14:12.737Z,47.8
2018-07-13T00:24:11.976Z,47.8
2018-07-13T00:34:11.211Z,47.8
2018-07-13T00:44:10.496Z,47.8
2018-07-13T00:54:09.680Z,47.8
2018-07-13T01:04:08.916Z,47.8
2018-07-13T01:14:08.153Z,47.8
2018-07-13T01:24:07.386Z,47.8
2018-07-13T01:34:06.672Z,47.8
2018-07-13T01:44:05.858Z,47.8
2018-07-13T01:54:05.092Z,47.8
2018-07-13T02:04:04.384Z,47.8
2018-07-13T02:14:03.573Z,47.8
2018-07-13T02:24:02.799Z,47.8
2018-07-13T02:34:02.104Z,47.8
2018-07-13T02:44:01.269Z,47.8
2018-07-13T02:54:00.506Z,47.8
2018-07-13T03:03:59.739Z,46.2
2018-07-13T03:13:58.976Z,46.1
2018-07-13T03:23:58.216Z,43.4
2018-07-13T03:33:57.449Z,41.9
2018-07-13T03:43:56.730Z,41.8
2018-07-13T03:53:55.920Z,41.7
2018-07-13T04:03:55.153Z,41.1
2018-07-13T04:13:54.391Z,41.1
2018-07-13T04:23:53.626Z,40.6
2018-07-13T04:33:52.869Z,39.5
2018-07-13T04:43:52.100Z,39.3
2018-07-13T04:53:51.343Z,38.6
2018-07-13T05:03:50.573Z,38.3
2018-07-13T05:13:49.809Z,38.3
2018-07-13T05:23:49.050Z,38.5
2018-07-13T05:33:48.286Z,38.7
2018-07-13T05:43:47.529Z,38.9
2018-07-13T05:53:46.759Z,39.2
2018-07-13T06:03:46.001Z,39.6
2018-07-13T06:13:45.240Z,40
2018-07-13T06:23:44.470Z,40.6
2018-07-13T06:33:43.706Z,41.3
2018-07-13T06:43:42.946Z,42
2018-07-13T06:53:42.182Z,42.9
2018-07-13T07:03:41.418Z,43.8
2018-07-13T07:13:40.653Z,44.4
2018-07-13T07:23:39.895Z,45.3
2018-07-13T07:33:39.125Z,46.1
2018-07-13T07:43:38.368Z,47.1
2018-07-13T07:53:37.599Z,48
2018-07-13T08:03:36.837Z,48.9
2018-07-13T08:13:36.194Z,49.9
2018-07-13T08:23:35.313Z,50.7
2018-07-13T08:33:34.555Z,51.4
2018-07-13T08:43:33.781Z,52.2
2018-07-13T08:53:33.016Z,52.9
2018-07-13T09:03:32.254Z,53.4
2018-07-13T09:13:31.492Z,54.1
2018-07-13T09:23:30.735Z,54.8
2018-07-13T09:33:29.972Z,55.4
2018-07-13T09:43:29.218Z,56.1
2018-07-13T09:53:28.447Z,56.8
2018-07-13T10:03:27.688Z,57.3
2018-07-13T10:13:26.935Z,57.9
2018-07-13T10:23:26.164Z,58.5
2018-07-13T10:33:25.407Z,59
2018-07-13T10:43:24.639Z,59.6
2018-07-13T10:53:23.888Z,60.1
2018-07-13T11:03:23.126Z,60.7
2018-07-13T11:13:22.365Z,61.4
2018-07-13T11:23:21.598Z,61.9
2018-07-13T11:33:20.844Z,62.5
2018-07-13T11:43:20.079Z,63.2
2018-07-13T11:53:19.371Z,63.8
2018-07-13T12:03:18.558Z,64.3
2018-07-13T12:13:17.794Z,64.8
2018-07-13T12:23:17.070Z,65.4
2018-07-13T12:33:16.270Z,66.1
2018-07-13T12:43:15.507Z,66.6
2018-07-13T12:53:14.744Z,67.2
2018-07-13T13:03:13.983Z,67.5
2018-07-13T13:13:13.220Z,67.8
2018-07-13T13:23:12.507Z,68
2018-07-13T13:33:11.694Z,68.3
2018-07-13T13:43:10.930Z,68.6
2018-07-13T13:53:10.177Z,69
2018-07-13T14:03:09.403Z,69.3
2018-07-13T14:13:08.646Z,69.4
2018-07-13T14:23:07.878Z,69.6
2018-07-13T14:33:07.115Z,69.7
2018-07-13T14:43:06.355Z,69.8
2018-07-13T14:53:05.595Z,69.9
2018-07-13T15:03:04.831Z,70.1
2018-07-13T15:13:04.072Z,70.1
2018-07-13T15:23:03.309Z,70.3
2018-07-13T15:33:02.544Z,70.4
2018-07-13T15:43:01.780Z,70.4
2018-07-13T15:53:01.019Z,70.6
2018-07-13T16:03:00.256Z,70.6
2018-07-13T16:12:59.492Z,70.7
2018-07-13T16:22:58.750Z,70.6
2018-07-13T16:32:57.970Z,70.6
2018-07-13T16:42:57.211Z,70.5
2018-07-13T16:52:56.446Z,70.2
2018-07-13T17:02:55.687Z,70.1
2018-07-13T17:12:54.928Z,69.9
2018-07-13T17:22:54.175Z,69.6
2018-07-13T17:32:53.410Z,69.2
2018-07-13T17:42:52.675Z,68.9
2018-07-13T17:52:51.883Z,68.6
2018-07-13T18:02:51.125Z,68.4
2018-07-13T18:12:50.483Z,68
2018-07-13T18:22:49.617Z,67.2
2018-07-13T18:32:48.848Z,66.8
2018-07-13T18:42:48.085Z,66.3
2018-07-13T18:52:47.323Z,65.9
2018-07-13T19:02:46.562Z,65.7
2018-07-13T19:12:45.801Z,65.4
2018-07-13T19:22:45.073Z,64.1
2018-07-13T19:32:44.283Z,61.3
2018-07-13T19:42:43.576Z,60
2018-07-13T19:52:42.755Z,58.9
2018-07-13T20:02:41.994Z,58.1
2018-07-13T20:12:41.235Z,57.4
2018-07-13T20:22:40.478Z,56.4
2018-07-13T20:32:39.718Z,56.2
2018-07-13T20:42:38.957Z,56
2018-07-13T20:52:38.236Z,55.8
2018-07-13T21:02:37.435Z,55.6
2018-07-13T21:12:36.674Z,55.4
2018-07-13T21:22:35.910Z,55.3
2018-07-13T21:32:35.157Z,55.2
2018-07-13T21:42:34.391Z,55.1
2018-07-13T21:52:33.676Z,54.9
2018-07-13T22:02:33.028Z,54.8
2018-07-13T22:12:32.107Z,54.7
2018-07-13T22:22:31.414Z,54.6
2018-07-13T22:32:30.582Z,54.5
2018-07-13T22:42:29.821Z,54.4
2018-07-13T22:52:29.060Z,54.3
2018-07-13T23:02:28.299Z,54.3
2018-07-13T23:12:27.537Z,54.2
2018-07-13T23:22:26.775Z,54.1
2018-07-13T23:32:26.013Z,54.1
2018-07-13T23:42:25.253Z,54
2018-07-13T23:52:24.493Z,53.9
